Time;durP1;ratioP1;P1;durP2;ratioP2;P2;SDS_P1;SDS_P2;PMS_P1;PMS_P2;Temp;Humidity;BMP_temperature;BMP_pressure;BME280_temperature;BME280_humidity;BME280_pressure;Samples;Min_cycle;Max_cycle;Signal;HPM_P1;HPM_P2
2023/07/02 00:01:31;;;;;;;15.65;5.72;;;;;;;-146.27;69.84;81948.31;5064598;28;20016;-65
2023/07/02 00:03:56;;;;;;;14.65;4.82;;;;;;;-146.27;69.82;81986.47;5069909;28;20016;-65
2023/07/02 00:06:21;;;;;;;14.35;5.00;;;;;;;-146.27;70.61;81972.41;5068737;28;20166;-65
2023/07/02 00:08:47;;;;;;;12.68;5.00;;;;;;;-146.27;70.51;81966.38;5054731;28;20527;-65
2023/07/02 00:11:15;;;;;;;14.35;5.05;;;;;;;-146.27;70.84;81998.50;5051657;28;20025;-65
2023/07/02 00:13:40;;;;;;;15.07;5.05;;;;;;;-146.27;71.05;81990.47;5066479;28;20028;-65
2023/07/02 00:16:06;;;;;;;13.52;4.30;;;;;;;-146.27;70.98;82028.66;5069832;28;20396;-64
2023/07/02 00:18:33;;;;;;;12.07;4.88;;;;;;;-146.27;71.20;82022.63;5078786;28;20507;-65
2023/07/02 00:21:02;;;;;;;13.25;4.72;;;;;;;-146.27;71.73;82006.53;5065295;28;20028;-65
2023/07/02 00:23:28;;;;;;;15.15;5.38;;;;;;;-146.27;72.03;82036.69;5070432;28;20028;-65
2023/07/02 00:25:53;;;;;;;16.60;4.65;;;;;;;-146.27;72.38;82052.75;5068678;28;20036;-65
2023/07/02 00:28:19;;;;;;;14.80;4.85;;;;;;;-146.27;72.38;82018.59;5063378;28;20021;-64
2023/07/02 00:30:44;;;;;;;11.73;5.25;;;;;;;-146.27;72.76;82004.53;5059605;28;20021;-65
2023/07/02 00:33:09;;;;;;;24.33;5.72;;;;;;;-146.27;73.67;82046.72;5068225;28;20032;-64
2023/07/02 00:35:35;;;;;;;17.63;4.45;;;;;;;-146.27;73.43;82054.75;5061790;28;20024;-64
2023/07/02 00:38:00;;;;;;;14.82;4.80;;;;;;;-146.27;74.52;82022.63;5067489;28;20496;-65
2023/07/02 00:40:27;;;;;;;11.02;4.57;;;;;;;-146.27;74.50;82034.66;5067858;28;20315;-63
2023/07/02 00:42:52;;;;;;;18.60;6.57;;;;;;;-146.27;73.86;82074.84;5077171;28;20021;-66
2023/07/02 00:45:18;;;;;;;19.17;5.40;;;;;;;-146.27;71.09;82090.91;5067693;28;20447;-66
2023/07/02 00:47:44;;;;;;;18.00;5.93;;;;;;;-146.27;68.87;82060.78;5069451;28;20028;-65
2023/07/02 00:50:09;;;;;;;11.88;5.03;;;;;;;-146.27;67.19;82062.78;5070401;28;20059;-65
2023/07/02 00:52:35;;;;;;;17.42;5.68;;;;;;;-146.27;66.53;82102.97;5063509;28;20032;-66
2023/07/02 00:55:01;;;;;;;11.98;4.95;;;;;;;-146.27;65.84;82066.81;5056785;28;20545;-65
2023/07/02 00:57:29;;;;;;;20.90;5.72;;;;;;;-146.27;66.06;82022.63;5063154;28;20031;-65
2023/07/02 00:59:56;;;;;;;15.30;6.32;;;;;;;-146.27;65.96;82070.81;5074104;28;20062;-65
2023/07/02 01:02:25;;;;;;;24.50;6.38;;;;;;;-146.27;65.20;82080.88;5071093;28;20020;-65
2023/07/02 01:04:57;;;;;;;14.05;5.32;;;;;;;-146.27;63.79;82088.91;5072675;28;20050;-65
2023/07/02 01:07:23;;;;;;;13.73;6.10;;;;;;;-146.27;63.16;82054.75;5078659;28;20023;-65
2023/07/02 01:09:48;;;;;;;22.75;6.63;;;;;;;-146.27;63.13;82104.97;5062641;28;20041;-66
2023/07/02 01:12:17;;;;;;;21.60;6.15;;;;;;;-146.27;61.70;82068.81;5070112;28;20556;-65
2023/07/02 01:14:47;;;;;;;17.13;6.72;;;;;;;-146.27;61.73;82080.88;5060077;28;20438;-66
2023/07/02 01:17:13;;;;;;;20.90;6.45;;;;;;;-146.27;61.68;82119.03;5063314;28;20657;-65
2023/07/02 01:19:58;;;;;;;14.30;5.65;;;;;;;-146.27;60.39;82080.88;5068049;28;20052;-65
2023/07/02 01:22:28;;;;;;;13.00;5.45;;;;;;;-146.27;60.02;82092.91;5059034;28;20029;-65
2023/07/02 01:24:54;;;;;;;23.15;6.35;;;;;;;-146.27;59.87;82129.06;5063846;28;20031;-65
2023/07/02 01:27:21;;;;;;;22.73;6.43;;;;;;;-146.27;59.70;82070.81;5068702;28;20056;-66
2023/07/02 01:29:51;;;;;;;19.52;5.97;;;;;;;-146.27;59.37;82070.81;5065963;28;20427;-65
2023/07/02 01:32:17;;;;;;;26.05;6.30;;;;;;;-146.27;60.48;82090.91;5060741;28;20498;-65
2023/07/02 01:34:48;;;;;;;29.08;6.20;;;;;;;-146.27;60.16;82090.91;5067062;28;20112;-65
2023/07/02 01:37:18;;;;;;;15.73;5.82;;;;;;;-146.27;59.42;82115.00;5078169;28;20447;-65
2023/07/02 01:39:43;;;;;;;21.52;5.97;;;;;;;-146.27;60.17;82113.00;5067744;28;20012;-65
2023/07/02 01:42:15;;;;;;;19.35;6.22;;;;;;;-146.27;59.81;82086.91;5080216;28;20040;-65
2023/07/02 01:44:43;;;;;;;20.30;6.18;;;;;;;-146.27;60.28;82135.09;5062012;28;20476;-65
2023/07/02 01:47:08;;;;;;;13.82;4.95;;;;;;;-146.27;60.08;82086.91;5069303;28;20036;-65
2023/07/02 01:49:34;;;;;;;18.05;6.63;;;;;;;-146.27;60.44;82123.06;5058435;28;20043;-65
2023/07/02 01:51:59;;;;;;;20.27;6.78;;;;;;;-146.27;60.91;82149.16;5061006;28;20017;-65
2023/07/02 01:54:29;;;;;;;19.27;6.03;;;;;;;-146.27;61.21;82163.22;5066136;28;20495;-65
2023/07/02 01:56:55;;;;;;;21.33;7.05;;;;;;;-146.27;61.56;82115.00;5066612;28;20369;-65
2023/07/02 01:59:21;;;;;;;18.70;6.35;;;;;;;-146.27;61.66;82157.19;5073171;28;21145;-64
2023/07/02 02:01:47;;;;;;;22.33;6.75;;;;;;;-146.27;61.74;82161.22;5073830;28;20016;-65
2023/07/02 02:04:13;;;;;;;16.35;6.13;;;;;;;-146.27;62.21;82171.25;5064554;28;20484;-65
2023/07/02 02:06:40;;;;;;;25.85;7.85;;;;;;;-146.27;62.46;82151.16;5073507;28;20111;-65
2023/07/02 02:09:06;;;;;;;15.32;6.47;;;;;;;-146.27;63.46;82157.19;5060385;28;20047;-65
2023/07/02 02:11:33;;;;;;;23.77;7.10;;;;;;;-146.27;65.29;82175.28;5073118;28;20052;-64
2023/07/02 02:14:01;;;;;;;18.38;6.18;;;;;;;-146.27;64.12;82187.31;5077042;28;20036;-65
2023/07/02 02:16:27;;;;;;;17.27;5.90;;;;;;;-146.27;65.32;82201.38;5065899;28;20391;-64
2023/07/02 02:18:52;;;;;;;18.60;6.38;;;;;;;-146.27;64.22;82195.38;5072479;28;20028;-65
2023/07/02 02:21:18;;;;;;;23.30;7.07;;;;;;;-146.27;64.08;82185.31;5079274;28;20028;-65
2023/07/02 02:23:44;;;;;;;22.75;7.18;;;;;;;-146.27;64.41;82207.41;5082057;28;20028;-65
2023/07/02 02:26:09;;;;;;;15.73;5.97;;;;;;;-146.27;64.48;82203.41;5065642;28;20079;-65
2023/07/02 02:28:35;;;;;;;26.75;7.22;;;;;;;-146.27;64.53;82227.50;5067851;28;20032;-65
2023/07/02 02:31:01;;;;;;;18.88;6.68;;;;;;;-146.27;64.71;82205.41;5075986;28;20035;-65
2023/07/02 02:33:26;;;;;;;18.60;6.07;;;;;;;-146.27;64.73;82191.34;5070003;28;20051;-65
2023/07/02 02:35:51;;;;;;;19.52;6.45;;;;;;;-146.27;64.82;82239.56;5069280;28;20044;-65
2023/07/02 02:38:17;;;;;;;21.17;7.50;;;;;;;-146.27;64.99;82191.34;5064920;28;20487;-65
2023/07/02 02:40:42;;;;;;;20.45;6.47;;;;;;;-146.27;64.79;82159.22;5066212;28;20134;-65
2023/07/02 02:43:08;;;;;;;20.95;6.93;;;;;;;-146.27;65.15;82203.41;5055995;28;20035;-65
2023/07/02 02:45:33;;;;;;;19.08;6.18;;;;;;;-146.27;65.16;82189.34;5082130;28;20027;-65
2023/07/02 02:47:58;;;;;;;19.98;6.32;;;;;;;-146.27;65.33;82179.28;5068339;28;20108;-64
2023/07/02 02:50:24;;;;;;;19.48;6.30;;;;;;;-146.27;65.69;82239.56;5070342;28;20020;-65
2023/07/02 02:52:49;;;;;;;20.50;7.22;;;;;;;-146.27;65.59;82227.50;5072776;28;20064;-65
2023/07/02 02:55:15;;;;;;;23.70;6.80;;;;;;;-146.27;65.24;82225.50;5068128;28;20425;-64
2023/07/02 02:57:40;;;;;;;30.13;6.78;;;;;;;-146.27;65.11;82237.53;5067670;28;20023;-65
2023/07/02 03:00:09;;;;;;;26.88;8.30;;;;;;;-146.27;65.42;82177.28;5074679;28;20034;-66
2023/07/02 03:02:35;;;;;;;28.13;6.97;;;;;;;-146.27;65.56;82235.53;5069117;28;20028;-65
2023/07/02 03:05:02;;;;;;;20.75;5.85;;;;;;;-146.27;65.52;82273.72;5067196;28;20116;-65
2023/07/02 03:07:31;;;;;;;19.83;6.43;;;;;;;-146.27;65.87;82227.50;5070860;28;20086;-65
2023/07/02 03:09:56;;;;;;;23.67;6.50;;;;;;;-146.27;66.20;82247.59;5079402;28;20044;-65
2023/07/02 03:12:22;;;;;;;23.75;6.75;;;;;;;-146.27;66.20;82203.41;5067845;28;20037;-65
2023/07/02 03:14:51;;;;;;;24.30;6.15;;;;;;;-146.27;67.20;82289.78;5079279;28;20019;-65
2023/07/02 03:17:17;;;;;;;27.67;6.70;;;;;;;-146.27;66.69;82285.75;5067344;28;20039;-64
2023/07/02 03:19:42;;;;;;;23.83;5.75;;;;;;;-146.27;66.81;82279.72;5064984;28;20032;-65
2023/07/02 03:22:07;;;;;;;33.92;7.18;;;;;;;-146.27;66.56;82279.72;5071621;28;20064;-65
2023/07/02 03:24:33;;;;;;;27.30;6.68;;;;;;;-146.27;66.41;82235.53;5057797;28;20048;-64
2023/07/02 03:26:58;;;;;;;17.65;6.57;;;;;;;-146.27;66.20;82299.81;5066878;28;20020;-64
2023/07/02 03:29:23;;;;;;;28.88;8.60;;;;;;;-146.27;66.55;82319.91;5069621;28;20403;-65
2023/07/02 03:31:49;;;;;;;16.95;6.63;;;;;;;-146.27;66.64;82323.91;5070902;28;20070;-65
2023/07/02 03:34:14;;;;;;;31.67;6.85;;;;;;;-146.27;66.87;82309.88;5087555;28;20073;-65
2023/07/02 03:36:40;;;;;;;23.75;6.72;;;;;;;-146.27;67.54;82299.81;5060584;28;20343;-65
2023/07/02 03:39:05;;;;;;;19.92;6.18;;;;;;;-146.27;67.53;82305.84;5065801;28;20043;-69
2023/07/02 03:41:31;;;;;;;21.80;7.45;;;;;;;-146.27;67.67;82277.72;5070442;28;20412;-64
2023/07/02 03:43:56;;;;;;;25.98;8.18;;;;;;;-146.27;67.90;82340.00;5070434;28;20028;-65
2023/07/02 03:46:22;;;;;;;23.17;6.28;;;;;;;-146.27;67.74;82305.84;5070843;28;20450;-64
2023/07/02 03:48:47;;;;;;;22.38;6.55;;;;;;;-146.27;67.89;82350.03;5074276;28;20098;-64
2023/07/02 03:51:14;;;;;;;19.67;6.22;;;;;;;-146.27;67.52;82394.22;5089390;28;20468;-64
2023/07/02 03:53:42;;;;;;;24.88;6.15;;;;;;;-146.27;67.42;82335.97;5061799;28;20021;-65
2023/07/02 03:56:07;;;;;;;19.80;6.22;;;;;;;-146.27;67.35;82360.09;5070804;28;20047;-65
2023/07/02 03:58:33;;;;;;;16.33;5.40;;;;;;;-146.27;66.90;82374.13;5070615;28;20429;-64
2023/07/02 04:00:59;;;;;;;22.30;5.80;;;;;;;-146.27;67.23;82331.97;5086501;28;20077;-64
2023/07/02 04:03:24;;;;;;;17.88;5.65;;;;;;;-146.27;67.08;82346.03;5070116;28;20027;-65
2023/07/02 04:05:50;;;;;;;20.40;5.72;;;;;;;-146.27;66.97;82370.13;5070584;28;20021;-65
2023/07/02 04:08:15;;;;;;;20.48;5.78;;;;;;;-146.27;67.00;82352.03;5065448;28;20020;-65
2023/07/02 04:10:41;;;;;;;19.10;5.95;;;;;;;-146.27;67.19;82358.06;5069187;28;20066;-65
2023/07/02 04:13:06;;;;;;;12.30;4.65;;;;;;;-146.27;66.95;82382.19;5070159;28;20025;-65
2023/07/02 04:15:32;;;;;;;21.10;4.82;;;;;;;-146.27;66.86;82376.16;5060473;28;20067;-64
2023/07/02 04:17:57;;;;;;;18.65;5.95;;;;;;;-146.27;66.98;82372.13;5070255;28;20039;-65
2023/07/02 04:20:22;;;;;;;16.17;5.30;;;;;;;-146.27;67.53;82400.25;5054309;28;20028;-65
2023/07/02 04:22:48;;;;;;;18.40;5.00;;;;;;;-146.27;67.12;82331.97;5066941;28;20036;-65
2023/07/02 04:25:15;;;;;;;17.05;5.25;;;;;;;-146.27;66.81;82362.09;5069499;28;20138;-64
2023/07/02 04:27:42;;;;;;;16.25;5.55;;;;;;;-146.27;66.67;82388.22;5068824;28;20362;-65
2023/07/02 04:30:08;;;;;;;19.77;5.75;;;;;;;-146.27;66.57;82374.13;5067633;28;20094;-64
2023/07/02 04:32:34;;;;;;;16.92;5.25;;;;;;;-146.27;66.13;82422.34;5063632;28;20025;-65
2023/07/02 04:34:59;;;;;;;15.25;6.28;;;;;;;-146.27;65.87;82382.19;5066432;28;20028;-64
2023/07/02 04:37:24;;;;;;;21.35;5.07;;;;;;;-146.27;66.27;82368.13;5076399;28;20020;-64
2023/07/02 04:39:50;;;;;;;20.75;5.47;;;;;;;-146.27;66.56;82372.13;5063002;28;20017;-65
2023/07/02 04:42:15;;;;;;;18.17;5.40;;;;;;;-146.27;67.17;82360.09;5072669;28;20028;-65
2023/07/02 04:44:43;;;;;;;15.60;5.40;;;;;;;-146.27;67.07;82376.16;5069634;28;20087;-64
2023/07/02 04:47:08;;;;;;;19.42;4.75;;;;;;;-146.27;67.50;82366.09;5066644;28;20590;-64
2023/07/02 04:49:34;;;;;;;17.33;5.18;;;;;;;-146.27;67.86;82392.22;5076215;28;20093;-64
2023/07/02 04:51:59;;;;;;;14.80;4.63;;;;;;;-146.27;67.37;82362.09;5073056;28;20103;-64
2023/07/02 04:54:25;;;;;;;21.60;5.05;;;;;;;-146.27;67.75;82331.97;5068860;28;20020;-64
2023/07/02 04:56:50;;;;;;;17.42;5.35;;;;;;;-146.27;68.11;82356.06;5065128;28;20494;-65
2023/07/02 04:59:16;;;;;;;16.38;4.75;;;;;;;-146.27;67.88;82317.91;5068313;28;20442;-65
2023/07/02 05:01:41;;;;;;;16.83;4.60;;;;;;;-146.27;68.21;82342.00;5068049;28;20016;-65
2023/07/02 05:04:09;;;;;;;17.70;5.30;;;;;;;-146.27;68.17;82406.28;5065534;28;20111;-64
2023/07/02 05:06:35;;;;;;;25.80;5.63;;;;;;;-146.27;68.30;82311.88;5079132;28;20039;-64
2023/07/02 05:09:00;;;;;;;15.73;4.70;;;;;;;-146.27;68.57;82313.88;5076060;28;20020;-64
2023/07/02 05:11:25;;;;;;;16.95;4.82;;;;;;;-146.27;69.04;82319.91;5072180;28;20115;-65
2023/07/02 05:13:51;;;;;;;19.77;5.13;;;;;;;-146.27;69.18;82317.91;5063440;28;20028;-64
2023/07/02 05:16:16;;;;;;;19.38;4.47;;;;;;;-146.27;69.31;82307.84;5061758;28;20130;-64
2023/07/02 05:18:42;;;;;;;16.92;4.68;;;;;;;-146.27;69.05;82303.84;5064284;28;20020;-65
2023/07/02 05:21:07;;;;;;;17.15;4.75;;;;;;;-146.27;69.29;82337.97;5062007;28;20029;-65
2023/07/02 05:23:32;;;;;;;19.55;5.07;;;;;;;-146.27;69.47;82299.81;5070256;28;20025;-64
2023/07/02 05:25:58;;;;;;;14.38;4.38;;;;;;;-146.27;68.70;82340.00;5068949;28;20107;-65
2023/07/02 05:28:24;;;;;;;15.02;5.07;;;;;;;-146.27;68.85;82315.88;5070295;28;20027;-64
2023/07/02 05:30:50;;;;;;;13.65;4.78;;;;;;;-146.27;68.66;82279.72;5067845;28;20040;-65
2023/07/02 05:33:15;;;;;;;12.65;5.10;;;;;;;-146.27;68.69;82259.66;5072868;28;20028;-64
2023/07/02 05:35:40;;;;;;;13.10;4.82;;;;;;;-146.27;68.16;82263.66;5065990;28;20024;-65
2023/07/02 05:38:06;;;;;;;17.42;5.32;;;;;;;-146.27;68.20;82263.66;5059667;28;20111;-64
2023/07/02 05:40:31;;;;;;;14.75;4.97;;;;;;;-146.27;69.10;82279.72;5052727;28;20013;-65
2023/07/02 05:42:57;;;;;;;15.65;4.88;;;;;;;-146.27;69.00;82231.53;5063499;28;20024;-64
2023/07/02 05:45:23;;;;;;;12.77;4.32;;;;;;;-146.27;69.38;82267.69;5060084;28;20052;-65
2023/07/02 05:47:49;;;;;;;17.15;4.75;;;;;;;-146.27;69.74;82275.72;5072886;28;20119;-65
2023/07/02 05:50:14;;;;;;;15.40;4.88;;;;;;;-146.27;69.49;82255.63;5054006;28;20025;-65
2023/07/02 05:52:39;;;;;;;13.32;4.53;;;;;;;-146.27;69.10;82251.59;5069975;28;20024;-65
2023/07/02 05:55:10;;;;;;;15.77;5.03;;;;;;;-146.27;68.67;82211.44;5072842;28;20054;-64
2023/07/02 05:57:35;;;;;;;14.00;4.32;;;;;;;-146.27;68.36;82275.72;5071772;28;20427;-65
2023/07/02 06:00:01;;;;;;;17.70;4.57;;;;;;;-146.27;68.47;82239.56;5072351;28;20037;-65
2023/07/02 06:02:26;;;;;;;17.30;5.10;;;;;;;-146.27;68.42;82243.56;5073292;28;20039;-65
2023/07/02 06:04:51;;;;;;;19.65;5.03;;;;;;;-146.27;68.66;82233.53;5059150;28;20021;-64
2023/07/02 06:07:17;;;;;;;15.73;5.57;;;;;;;-146.27;69.20;82251.59;5069167;28;20117;-65
2023/07/02 06:09:42;;;;;;;16.98;4.90;;;;;;;-146.27;69.28;82265.66;5071551;28;20534;-65
2023/07/02 06:12:08;;;;;;;18.42;4.50;;;;;;;-146.27;69.29;82261.66;5070417;28;20040;-64
2023/07/02 06:14:33;;;;;;;18.15;4.70;;;;;;;-146.27;68.04;82348.03;5091018;28;20052;-64
2023/07/02 06:17:00;;;;;;;20.90;4.53;;;;;;;-146.27;67.86;82277.72;5085817;28;20027;-64
2023/07/02 06:19:26;;;;;;;22.83;5.30;;;;;;;-146.27;67.01;82263.66;5083190;28;20502;-64
2023/07/02 06:21:51;;;;;;;16.13;5.43;;;;;;;-146.27;67.27;82199.38;5074725;28;20020;-64
2023/07/02 06:24:16;;;;;;;14.85;4.55;;;;;;;-146.27;67.31;82223.47;5073201;28;20028;-65
2023/07/02 06:26:42;;;;;;;12.95;3.90;;;;;;;-146.27;66.48;82207.41;5072416;28;20020;-63
2023/07/02 06:29:07;;;;;;;19.17;5.07;;;;;;;-146.27;65.74;82225.50;5079639;28;20060;-65
2023/07/02 06:31:33;;;;;;;15.98;4.15;;;;;;;-146.27;65.61;82231.53;5070346;28;20316;-64
2023/07/02 06:33:58;;;;;;;15.20;4.68;;;;;;;-146.27;65.34;82251.59;5071516;28;20025;-65
2023/07/02 06:36:23;;;;;;;18.27;4.60;;;;;;;-146.27;63.23;82263.66;5078725;28;20492;-64
2023/07/02 06:38:49;;;;;;;14.63;5.00;;;;;;;-146.27;62.34;82225.50;5071743;28;20103;-64
2023/07/02 06:41:15;;;;;;;20.73;4.60;;;;;;;-146.27;62.62;82135.09;5071870;28;20020;-64
2023/07/02 06:43:43;;;;;;;22.00;5.20;;;;;;;-146.27;62.94;82175.28;5075546;28;20037;-65
2023/07/02 06:46:10;;;;;;;11.13;3.95;;;;;;;-146.27;62.50;82121.03;5073483;28;20376;-64
2023/07/02 06:48:35;;;;;;;14.80;4.85;;;;;;;-146.27;62.38;82151.16;5072021;28;20219;-64
2023/07/02 06:51:01;;;;;;;16.38;5.07;;;;;;;-146.27;63.18;82094.94;5068496;28;20078;-64
2023/07/02 06:53:26;;;;;;;20.58;4.55;;;;;;;-146.27;64.27;82123.06;5071624;28;20021;-65
2023/07/02 06:55:52;;;;;;;16.35;5.07;;;;;;;-146.27;63.50;82129.06;5064681;28;20025;-64
2023/07/02 06:58:17;;;;;;;15.15;4.63;;;;;;;-146.27;63.68;82169.25;5052080;28;20029;-64
2023/07/02 07:00:42;;;;;;;18.83;4.63;;;;;;;-146.27;61.78;82147.16;5055643;28;20035;-66
2023/07/02 07:03:08;;;;;;;17.90;5.40;;;;;;;-146.27;62.62;82159.22;5082170;28;20020;-65
2023/07/02 07:05:33;;;;;;;10.15;4.20;;;;;;;-146.27;63.15;82147.16;5080191;28;20506;-64
2023/07/02 07:08:00;;;;;;;14.25;4.38;;;;;;;-146.27;62.93;82179.28;5085671;28;20133;-64
2023/07/02 07:10:26;;;;;;;16.60;4.85;;;;;;;-146.27;60.62;82165.22;5075920;28;20040;-65
2023/07/02 07:12:51;;;;;;;12.38;4.18;;;;;;;-146.27;60.17;82157.19;5079521;28;20033;-64
2023/07/02 07:15:16;;;;;;;14.20;4.38;;;;;;;-146.27;58.50;82163.22;5070943;28;20539;-65
2023/07/02 07:17:42;;;;;;;11.40;4.18;;;;;;;-146.27;58.02;82175.28;5071589;28;20108;-64
2023/07/02 07:20:08;;;;;;;12.77;4.68;;;;;;;-146.27;58.94;82131.09;5070465;28;20020;-64
2023/07/02 07:22:34;;;;;;;15.90;4.28;;;;;;;-146.27;58.69;82084.88;5070367;28;20039;-63
2023/07/02 07:24:59;;;;;;;12.82;4.30;;;;;;;-146.27;56.77;82072.84;5080296;28;20327;-63
2023/07/02 07:27:24;;;;;;;15.77;4.30;;;;;;;-146.27;56.51;82086.91;5080538;28;20028;-65
2023/07/02 07:29:50;;;;;;;13.38;4.28;;;;;;;-146.27;57.35;82068.81;5069809;28;20017;-65
2023/07/02 07:32:16;;;;;;;12.20;3.83;;;;;;;-146.27;57.32;82040.69;5070161;28;20020;-66
2023/07/02 07:34:42;;;;;;;13.68;4.32;;;;;;;-146.27;57.44;82012.56;5070664;28;20450;-65
2023/07/02 07:37:07;;;;;;;14.70;4.20;;;;;;;-146.27;57.85;82010.56;5071329;28;20174;-65
2023/07/02 07:39:32;;;;;;;12.95;4.13;;;;;;;-146.27;56.02;82042.69;5071369;28;20507;-64
2023/07/02 07:41:58;;;;;;;14.20;4.72;;;;;;;-146.27;56.12;82074.84;5075154;28;20069;-65
2023/07/02 07:44:23;;;;;;;14.23;4.32;;;;;;;-146.27;56.83;82078.84;5075739;28;20476;-65
2023/07/02 07:46:48;;;;;;;17.33;3.67;;;;;;;-146.27;57.60;82022.63;5070577;28;20043;-65
2023/07/02 07:49:14;;;;;;;12.10;4.05;;;;;;;-146.27;57.07;82030.66;5064525;28;20506;-65
2023/07/02 07:51:39;;;;;;;10.50;4.07;;;;;;;-146.27;56.78;82012.56;5077765;28;20029;-65
2023/07/02 07:54:05;;;;;;;15.48;4.95;;;;;;;-146.27;57.13;81958.34;5090424;28;20084;-65
2023/07/02 07:56:30;;;;;;;14.20;4.10;;;;;;;-146.27;57.39;81994.50;5063593;28;20483;-65
2023/07/02 07:58:55;;;;;;;14.05;4.30;;;;;;;-146.27;57.16;82034.66;5065557;28;20476;-65
2023/07/02 08:01:21;;;;;;;14.00;4.20;;;;;;;-146.27;57.33;81954.31;5064582;28;20365;-65
2023/07/02 08:03:46;;;;;;;15.18;3.53;;;;;;;-146.27;55.47;81940.25;5053336;28;20098;-65
2023/07/02 08:06:12;;;;;;;12.77;4.65;;;;;;;-146.27;56.21;81914.16;5071541;28;20063;-65
2023/07/02 08:08:37;;;;;;;15.30;4.00;;;;;;;-146.27;55.25;81946.28;5061929;28;20482;-65
2023/07/02 08:11:02;;;;;;;17.10;3.60;;;;;;;-146.27;55.03;81876.00;5079797;28;20052;-65
2023/07/02 08:13:28;;;;;;;11.73;3.60;;;;;;;-146.27;52.31;81938.25;5077142;28;20024;-65
2023/07/02 08:15:53;;;;;;;12.55;3.85;;;;;;;-146.27;52.53;81938.25;5069117;28;20032;-64
2023/07/02 08:18:19;;;;;;;15.73;3.78;;;;;;;-146.27;52.19;81938.25;5070163;28;20036;-65
2023/07/02 08:20:44;;;;;;;11.23;3.40;;;;;;;-146.27;52.74;81886.03;5078022;28;20020;-65
2023/07/02 08:23:09;;;;;;;10.55;3.22;;;;;;;-146.27;51.22;81789.63;5072227;28;20032;-64
2023/07/02 08:25:35;;;;;;;12.57;3.35;;;;;;;-146.27;50.76;81835.81;5073859;28;20020;-64
2023/07/02 08:28:00;;;;;;;14.40;3.70;;;;;;;-146.27;50.47;81753.47;5064986;28;20020;-63
2023/07/02 08:30:26;;;;;;;11.15;2.90;;;;;;;-146.27;49.94;81777.56;5067680;28;20020;-64
2023/07/02 08:32:54;;;;;;;8.80;3.63;;;;;;;-146.27;51.04;81761.50;5068689;28;20115;-64
2023/07/02 08:35:19;;;;;;;12.63;3.50;;;;;;;-146.27;51.37;81863.94;5066662;28;20076;-65
2023/07/02 08:37:44;;;;;;;12.45;4.10;;;;;;;-146.27;54.12;81873.97;5063801;28;20024;-64
2023/07/02 08:40:18;;;;;;;15.10;3.70;;;;;;;-146.27;52.49;81827.78;5069417;28;20021;-66
2023/07/02 08:42:44;;;;;;;;;;;;;;;-146.27;51.67;81813.72;5059994;28;20482;-65
2023/07/02 08:45:10;;;;;;;14.07;4.22;;;;;;;-146.27;54.16;81805.69;5065844;28;19912;-65
2023/07/02 08:47:35;;;;;;;10.18;4.18;;;;;;;-146.27;54.22;81821.75;5069647;28;20035;-64
2023/07/02 08:50:03;;;;;;;12.02;4.20;;;;;;;-146.27;53.21;81878.00;5064785;28;20029;-64
2023/07/02 08:52:28;;;;;;;11.27;3.50;;;;;;;-146.27;54.67;81833.81;5053324;28;20063;-64
2023/07/02 08:54:54;;;;;;;11.93;3.60;;;;;;;-146.27;54.02;81797.66;5053889;28;20052;-66
2023/07/02 08:57:21;;;;;;;8.10;3.65;;;;;;;-146.27;52.80;81743.44;5066567;28;20079;-63
2023/07/02 08:59:47;;;;;;;13.45;3.97;;;;;;;-146.27;52.92;81767.53;5067056;28;20028;-65
2023/07/02 09:02:13;;;;;;;10.70;3.35;;;;;;;-146.27;52.32;81745.44;5064250;28;20083;-64
2023/07/02 09:04:38;;;;;;;10.90;3.05;;;;;;;-146.27;51.42;81741.41;5068580;28;20424;-65
2023/07/02 09:07:09;;;;;;;13.52;3.10;;;;;;;-146.27;52.29;81733.38;5078935;28;20059;-66
2023/07/02 09:09:46;;;;;;;10.65;4.28;;;;;;;-146.27;53.98;81663.09;5065733;28;20366;-64
2023/07/02 09:12:30;;;;;;;16.40;3.38;;;;;;;-146.27;52.32;81671.13;5083242;28;20048;-66
2023/07/02 09:15:05;;;;;;;11.53;4.03;;;;;;;-146.27;53.77;81701.25;5060341;28;20029;-65
2023/07/02 09:17:35;;;;;;;13.27;4.22;;;;;;;-146.27;52.19;81697.22;5061237;28;20655;-65
2023/07/02 09:20:04;;;;;;;14.63;3.63;;;;;;;-146.27;52.47;81725.34;5049493;28;20396;-65
2023/07/02 09:22:30;;;;;;;13.57;3.70;;;;;;;-146.27;51.97;81665.09;5059191;28;20066;-64
2023/07/02 09:24:59;;;;;;;13.75;3.42;;;;;;;-146.27;49.92;81695.22;5089286;28;20493;-64
2023/07/02 09:27:38;;;;;;;9.88;2.90;;;;;;;-146.27;50.42;81697.22;5070944;28;20494;-65
2023/07/02 09:30:15;;;;;;;11.80;3.40;;;;;;;-146.27;50.05;81743.44;5059340;28;20037;-65
2023/07/02 09:32:42;;;;;;;15.20;3.40;;;;;;;-146.27;50.76;81622.91;5089884;28;20031;-64
2023/07/02 09:35:08;;;;;;;11.65;3.47;;;;;;;-146.27;50.05;81679.16;5073436;28;20021;-63
2023/07/02 09:37:34;;;;;;;11.48;3.25;;;;;;;-146.27;48.87;81643.00;5064992;28;20447;-64
2023/07/02 09:40:01;;;;;;;8.75;3.15;;;;;;;-146.27;50.70;81612.88;5049374;28;20544;-65
2023/07/02 09:42:27;;;;;;;10.00;2.97;;;;;;;-146.27;51.39;81572.72;5067857;28;20029;-65
2023/07/02 09:44:55;;;;;;;10.20;3.17;;;;;;;-146.27;49.23;81628.94;5085133;28;20025;-64
2023/07/02 09:47:23;;;;;;;10.65;3.42;;;;;;;-146.27;50.13;81634.97;5058943;28;20078;-64
2023/07/02 09:50:01;;;;;;;12.55;3.38;;;;;;;-146.27;48.94;81693.22;5047927;28;20036;-65
2023/07/02 09:52:27;;;;;;;9.15;2.92;;;;;;;-146.27;48.65;81612.88;5058203;28;20119;-64
2023/07/02 09:54:53;;;;;;;16.85;3.30;;;;;;;-146.27;47.43;81622.91;5065751;28;20052;-65
2023/07/02 09:57:18;;;;;;;7.30;2.38;;;;;;;-146.27;45.74;81556.66;5069572;28;20032;-66
2023/07/02 09:59:44;;;;;;;6.03;2.65;;;;;;;-146.27;45.87;81568.69;5069250;28;20050;-65
2023/07/02 10:02:11;;;;;;;12.63;4.28;;;;;;;-146.27;44.79;81556.66;5072891;28;20029;-65
2023/07/02 10:04:44;;;;;;;9.45;3.20;;;;;;;-146.27;45.58;81470.28;5050967;28;20033;-65
2023/07/02 10:07:10;;;;;;;5.47;2.58;;;;;;;-146.27;44.83;81484.34;5049483;28;20082;-65
2023/07/02 10:09:41;;;;;;;8.88;2.78;;;;;;;-146.27;45.42;81387.94;5064490;28;20076;-65
2023/07/02 10:12:23;;;;;;;8.13;2.90;;;;;;;-146.27;45.05;81452.22;5059062;28;20101;-65
2023/07/02 10:14:56;;;;;;;8.27;3.10;;;;;;;-146.27;44.20;81428.09;5086173;28;20034;-64
2023/07/02 10:17:36;;;;;;;5.05;2.45;;;;;;;-146.27;41.53;81472.28;5093181;28;20055;-64
2023/07/02 10:20:07;;;;;;;9.10;3.35;;;;;;;-146.27;43.51;81520.50;5073040;28;20056;-64
2023/07/02 10:22:53;;;;;;;11.18;3.28;;;;;;;-146.27;43.26;81470.28;5067987;28;20142;-65
2023/07/02 10:25:26;;;;;;;10.60;3.55;;;;;;;-146.27;41.64;81426.09;5073654;28;20027;-64
2023/07/02 10:27:52;;;;;;;8.23;3.17;;;;;;;-146.27;40.30;81428.09;5074926;28;20021;-65
2023/07/02 10:30:17;;;;;;;8.20;2.97;;;;;;;-146.27;41.16;81420.06;5062152;28;20062;-65
2023/07/02 10:32:43;;;;;;;11.02;3.33;;;;;;;-146.27;41.36;81375.91;5082557;28;20027;-65
2023/07/02 10:35:16;;;;;;;12.32;3.78;;;;;;;-146.27;41.73;81446.19;5079617;28;20119;-65
2023/07/02 10:37:41;;;;;;;9.00;3.10;;;;;;;-146.27;42.30;81448.19;5072719;28;20028;-65
2023/07/02 10:40:09;;;;;;;9.00;3.42;;;;;;;-146.27;40.78;81383.94;5072376;28;20130;-65
2023/07/02 10:42:48;;;;;;;8.32;3.53;;;;;;;-146.27;40.47;81355.81;5069289;28;20054;-65
2023/07/02 10:45:13;;;;;;;10.40;3.20;;;;;;;-146.27;38.62;81482.34;5053074;28;20119;-65
2023/07/02 10:47:40;;;;;;;8.75;3.20;;;;;;;-146.27;39.33;81412.03;5052254;28;20104;-65
2023/07/02 10:50:35;;;;;;;8.00;3.00;;;;;;;-146.27;38.96;81365.84;5052249;28;20548;-65
2023/07/02 10:53:00;;;;;;;15.32;3.80;;;;;;;-146.27;40.20;81432.13;5055584;28;20043;-64
2023/07/02 10:55:27;;;;;;;9.18;3.28;;;;;;;-146.27;40.86;81512.47;5075075;28;20032;-65
2023/07/02 10:58:07;;;;;;;7.63;2.95;;;;;;;-146.27;40.05;81456.22;5093125;28;20063;-64
2023/07/02 11:00:33;;;;;;;8.38;3.25;;;;;;;-146.27;40.87;81512.47;5071883;28;20020;-64
2023/07/02 11:02:59;;;;;;;12.45;4.00;;;;;;;-146.27;40.53;81508.44;5061485;28;20039;-64
2023/07/02 11:05:25;;;;;;;10.68;3.30;;;;;;;-146.27;39.88;81492.38;5090315;28;20020;-64
2023/07/02 11:07:56;;;;;;;11.73;3.15;;;;;;;-146.27;39.96;81520.50;5072155;28;20111;-64